sensor_id;sensor_type;location;lat;lon;timestamp;temperature;humidity
18456;DHT22;9357;49.900;8.208;2023-04-15T00:01:05;8.30;99.90
18456;DHT22;9357;49.900;8.208;2023-04-15T00:02:38;8.20;99.90
18456;DHT22;9357;49.900;8.208;2023-04-15T00:04:10;8.20;99.90
18456;DHT22;9357;49.900;8.208;2023-04-15T00:05:43;8.10;99.90
18456;DHT22;9357;49.900;8.208;2023-04-15T00:07:16;8.10;99.90
18456;DHT22;9357;49.900;8.208;2023-04-15T00:08:49;8.00;99.90
18456;DHT22;9357;49.900;8.208;2023-04-15T00:10:21;8.00;99.90
18456;DHT22;9357;49.900;8.208;2023-04-15T00:11:54;8.00;99.90
18456;DHT22;9357;49.900;8.208;2023-04-15T00:13:25;8.00;99.90
18456;DHT22;9357;49.900;8.208;2023-04-15T00:15:00;8.00;99.90
18456;DHT22;9357;49.900;8.208;2023-04-15T00:16:32;8.00;99.90
18456;DHT22;9357;49.900;8.208;2023-04-15T00:18:05;8.00;99.90
18456;DHT22;9357;49.900;8.208;2023-04-15T00:19:38;8.00;99.90
18456;DHT22;9357;49.900;8.208;2023-04-15T00:21:11;7.90;99.90
18456;DHT22;9357;49.900;8.208;2023-04-15T00:22:44;8.00;99.90
18456;DHT22;9357;49.900;8.208;2023-04-15T00:24:16;7.90;99.90
18456;DHT22;9357;49.900;8.208;2023-04-15T00:25:49;7.90;99.90
18456;DHT22;9357;49.900;8.208;2023-04-15T00:27:21;7.80;99.90
18456;DHT22;9357;49.900;8.208;2023-04-15T00:28:54;7.80;99.90
18456;DHT22;9357;49.900;8.208;2023-04-15T00:30:28;7.80;99.90
18456;DHT22;9357;49.900;8.208;2023-04-15T00:32:02;7.80;99.90
18456;DHT22;9357;49.900;8.208;2023-04-15T00:33:34;7.80;99.90
18456;DHT22;9357;49.900;8.208;2023-04-15T00:35:08;7.80;99.90
18456;DHT22;9357;49.900;8.208;2023-04-15T00:36:41;7.80;99.90
18456;DHT22;9357;49.900;8.208;2023-04-15T00:38:14;7.80;99.90
18456;DHT22;9357;49.900;8.208;2023-04-15T00:39:46;7.80;99.90
18456;DHT22;9357;49.900;8.208;2023-04-15T00:41:20;7.80;99.90
18456;DHT22;9357;49.900;8.208;2023-04-15T00:42:53;7.80;99.90
18456;DHT22;9357;49.900;8.208;2023-04-15T00:44:26;7.80;99.90
18456;DHT22;9357;49.900;8.208;2023-04-15T00:46:01;7.80;99.90
18456;DHT22;9357;49.900;8.208;2023-04-15T00:47:35;7.80;99.90
18456;DHT22;9357;49.900;8.208;2023-04-15T00:49:09;7.70;99.90
18456;DHT22;9357;49.900;8.208;2023-04-15T00:50:42;7.70;99.90
18456;DHT22;9357;49.900;8.208;2023-04-15T00:52:14;7.70;99.90
18456;DHT22;9357;49.900;8.208;2023-04-15T00:53:46;7.70;99.90
18456;DHT22;9357;49.900;8.208;2023-04-15T00:55:19;7.60;99.90
18456;DHT22;9357;49.900;8.208;2023-04-15T00:56:52;7.60;99.90
18456;DHT22;9357;49.900;8.208;2023-04-15T00:58:25;7.60;99.90
18456;DHT22;9357;49.900;8.208;2023-04-15T00:59:59;7.60;99.90
18456;DHT22;9357;49.900;8.208;2023-04-15T01:01:34;7.60;99.90
18456;DHT22;9357;49.900;8.208;2023-04-15T01:03:08;7.60;99.90
18456;DHT22;9357;49.900;8.208;2023-04-15T01:04:42;7.60;99.90
18456;DHT22;9357;49.900;8.208;2023-04-15T01:06:15;7.60;99.90
18456;DHT22;9357;49.900;8.208;2023-04-15T01:07:47;7.60;99.90
18456;DHT22;9357;49.900;8.208;2023-04-15T01:09:20;7.60;99.90
18456;DHT22;9357;49.900;8.208;2023-04-15T01:10:53;7.60;99.90
18456;DHT22;9357;49.900;8.208;2023-04-15T01:12:26;7.50;99.90
18456;DHT22;9357;49.900;8.208;2023-04-15T01:14:00;7.50;99.90
18456;DHT22;9357;49.900;8.208;2023-04-15T01:15:34;7.50;99.90
18456;DHT22;9357;49.900;8.208;2023-04-15T01:17:08;7.50;99.90
18456;DHT22;9357;49.900;8.208;2023-04-15T01:18:41;7.40;99.90
18456;DHT22;9357;49.900;8.208;2023-04-15T01:20:12;7.40;99.90
18456;DHT22;9357;49.900;8.208;2023-04-15T01:21:46;7.40;99.90
18456;DHT22;9357;49.900;8.208;2023-04-15T01:23:19;7.40;99.90
18456;DHT22;9357;49.900;8.208;2023-04-15T01:24:58;7.40;99.90
18456;DHT22;9357;49.900;8.208;2023-04-15T01:26:36;7.40;99.90
18456;DHT22;9357;49.900;8.208;2023-04-15T01:28:09;7.40;99.90
18456;DHT22;9357;49.900;8.208;2023-04-15T01:29:42;7.40;99.90
18456;DHT22;9357;49.900;8.208;2023-04-15T01:31:15;7.40;99.90
18456;DHT22;9357;49.900;8.208;2023-04-15T01:32:48;7.40;99.90
18456;DHT22;9357;49.900;8.208;2023-04-15T01:34:21;7.40;99.90
18456;DHT22;9357;49.900;8.208;2023-04-15T01:35:54;7.30;99.90
18456;DHT22;9357;49.900;8.208;2023-04-15T01:37:26;7.30;99.90
18456;DHT22;9357;49.900;8.208;2023-04-15T01:38:59;7.30;99.90
18456;DHT22;9357;49.900;8.208;2023-04-15T01:40:32;7.30;99.90
18456;DHT22;9357;49.900;8.208;2023-04-15T01:42:06;7.30;99.90
18456;DHT22;9357;49.900;8.208;2023-04-15T01:43:38;7.20;99.90
18456;DHT22;9357;49.900;8.208;2023-04-15T01:45:12;7.30;99.90
18456;DHT22;9357;49.900;8.208;2023-04-15T01:46:44;7.30;99.90
18456;DHT22;9357;49.900;8.208;2023-04-15T01:48:17;7.30;99.90
18456;DHT22;9357;49.900;8.208;2023-04-15T01:49:49;7.20;99.90
18456;DHT22;9357;49.900;8.208;2023-04-15T01:51:22;7.20;99.90
18456;DHT22;9357;49.900;8.208;2023-04-15T01:52:55;7.20;99.90
18456;DHT22;9357;49.900;8.208;2023-04-15T01:54:27;7.20;99.90
18456;DHT22;9357;49.900;8.208;2023-04-15T01:56:00;7.10;99.90
18456;DHT22;9357;49.900;8.208;2023-04-15T01:57:34;7.10;99.90
18456;DHT22;9357;49.900;8.208;2023-04-15T01:59:06;7.10;99.90
18456;DHT22;9357;49.900;8.208;2023-04-15T02:00:39;7.10;99.90
18456;DHT22;9357;49.900;8.208;2023-04-15T02:02:12;7.10;99.90
18456;DHT22;9357;49.900;8.208;2023-04-15T02:03:44;7.00;99.90
18456;DHT22;9357;49.900;8.208;2023-04-15T02:05:18;7.00;99.90
18456;DHT22;9357;49.900;8.208;2023-04-15T02:06:50;7.00;99.90
18456;DHT22;9357;49.900;8.208;2023-04-15T02:08:23;6.90;99.90
18456;DHT22;9357;49.900;8.208;2023-04-15T02:09:55;6.90;99.90
18456;DHT22;9357;49.900;8.208;2023-04-15T02:11:28;6.90;99.90
18456;DHT22;9357;49.900;8.208;2023-04-15T02:13:02;6.90;99.90
18456;DHT22;9357;49.900;8.208;2023-04-15T02:14:35;6.80;99.90
18456;DHT22;9357;49.900;8.208;2023-04-15T02:16:15;6.80;99.90
18456;DHT22;9357;49.900;8.208;2023-04-15T02:17:48;6.80;99.90
18456;DHT22;9357;49.900;8.208;2023-04-15T02:19:23;6.80;99.90
18456;DHT22;9357;49.900;8.208;2023-04-15T02:20:55;6.70;99.90
18456;DHT22;9357;49.900;8.208;2023-04-15T02:22:29;6.70;99.90
18456;DHT22;9357;49.900;8.208;2023-04-15T02:24:02;6.70;99.90
18456;DHT22;9357;49.900;8.208;2023-04-15T02:25:35;6.70;99.90
18456;DHT22;9357;49.900;8.208;2023-04-15T02:27:07;6.60;99.90
18456;DHT22;9357;49.900;8.208;2023-04-15T02:28:40;6.60;99.90
18456;DHT22;9357;49.900;8.208;2023-04-15T02:30:13;6.70;99.90
18456;DHT22;9357;49.900;8.208;2023-04-15T02:31:46;6.60;99.90
18456;DHT22;9357;49.900;8.208;2023-04-15T02:33:20;6.60;99.90
18456;DHT22;9357;49.900;8.208;2023-04-15T02:34:53;6.60;99.90
18456;DHT22;9357;49.900;8.208;2023-04-15T02:36:25;6.60;99.90
18456;DHT22;9357;49.900;8.208;2023-04-15T02:38:00;6.60;99.90
18456;DHT22;9357;49.900;8.208;2023-04-15T02:39:33;6.60;99.90
18456;DHT22;9357;49.900;8.208;2023-04-15T02:41:05;6.70;99.90
18456;DHT22;9357;49.900;8.208;2023-04-15T02:42:38;6.70;99.90
18456;DHT22;9357;49.900;8.208;2023-04-15T02:44:12;6.70;99.90
18456;DHT22;9357;49.900;8.208;2023-04-15T02:45:45;6.60;99.90
18456;DHT22;9357;49.900;8.208;2023-04-15T02:47:18;6.60;99.90
18456;DHT22;9357;49.900;8.208;2023-04-15T02:48:51;6.50;99.90
18456;DHT22;9357;49.900;8.208;2023-04-15T02:50:24;6.50;99.90
18456;DHT22;9357;49.900;8.208;2023-04-15T02:51:58;6.40;99.90
18456;DHT22;9357;49.900;8.208;2023-04-15T02:53:31;6.40;99.90
18456;DHT22;9357;49.900;8.208;2023-04-15T02:55:03;6.40;99.90
18456;DHT22;9357;49.900;8.208;2023-04-15T02:56:36;6.40;99.90
18456;DHT22;9357;49.900;8.208;2023-04-15T02:58:09;6.40;99.90
18456;DHT22;9357;49.900;8.208;2023-04-15T02:59:43;6.30;99.90
18456;DHT22;9357;49.900;8.208;2023-04-15T03:01:16;6.30;99.90
18456;DHT22;9357;49.900;8.208;2023-04-15T03:02:49;6.30;99.90
18456;DHT22;9357;49.900;8.208;2023-04-15T03:04:26;6.30;99.90
18456;DHT22;9357;49.900;8.208;2023-04-15T03:06:00;6.30;99.90
18456;DHT22;9357;49.900;8.208;2023-04-15T03:07:33;6.30;99.90
18456;DHT22;9357;49.900;8.208;2023-04-15T03:09:06;6.30;99.90
18456;DHT22;9357;49.900;8.208;2023-04-15T03:10:38;6.30;99.90
18456;DHT22;9357;49.900;8.208;2023-04-15T03:12:10;6.30;99.90
18456;DHT22;9357;49.900;8.208;2023-04-15T03:13:43;6.30;99.90
18456;DHT22;9357;49.900;8.208;2023-04-15T03:15:17;6.20;99.90
18456;DHT22;9357;49.900;8.208;2023-04-15T03:16:50;6.20;99.90
18456;DHT22;9357;49.900;8.208;2023-04-15T03:18:23;6.20;99.90
18456;DHT22;9357;49.900;8.208;2023-04-15T03:19:56;6.20;99.90
18456;DHT22;9357;49.900;8.208;2023-04-15T03:21:28;6.20;99.90
18456;DHT22;9357;49.900;8.208;2023-04-15T03:23:01;6.20;99.90
18456;DHT22;9357;49.900;8.208;2023-04-15T03:24:33;6.20;99.90
18456;DHT22;9357;49.900;8.208;2023-04-15T03:26:06;6.20;99.90
18456;DHT22;9357;49.900;8.208;2023-04-15T03:27:40;6.20;99.90
18456;DHT22;9357;49.900;8.208;2023-04-15T03:29:12;6.20;99.90
18456;DHT22;9357;49.900;8.208;2023-04-15T03:30:46;6.20;99.90
18456;DHT22;9357;49.900;8.208;2023-04-15T03:32:18;6.20;99.90
18456;DHT22;9357;49.900;8.208;2023-04-15T03:33:51;6.20;99.90
18456;DHT22;9357;49.900;8.208;2023-04-15T03:35:24;6.20;99.90
18456;DHT22;9357;49.900;8.208;2023-04-15T03:36:57;6.20;99.90
18456;DHT22;9357;49.900;8.208;2023-04-15T03:38:29;6.20;99.90
18456;DHT22;9357;49.900;8.208;2023-04-15T03:40:01;6.20;99.90
18456;DHT22;9357;49.900;8.208;2023-04-15T03:41:34;6.20;99.90
18456;DHT22;9357;49.900;8.208;2023-04-15T03:43:07;6.20;99.90
18456;DHT22;9357;49.900;8.208;2023-04-15T03:44:40;6.20;99.90
18456;DHT22;9357;49.900;8.208;2023-04-15T03:46:14;6.20;99.90
18456;DHT22;9357;49.900;8.208;2023-04-15T03:47:46;6.20;99.90
18456;DHT22;9357;49.900;8.208;2023-04-15T03:49:20;6.20;99.90
18456;DHT22;9357;49.900;8.208;2023-04-15T03:50:53;6.20;99.90
18456;DHT22;9357;49.900;8.208;2023-04-15T03:52:26;6.20;99.90
18456;DHT22;9357;49.900;8.208;2023-04-15T03:53:59;6.20;99.90
18456;DHT22;9357;49.900;8.208;2023-04-15T03:55:32;6.20;99.90
18456;DHT22;9357;49.900;8.208;2023-04-15T03:57:05;6.20;99.90
18456;DHT22;9357;49.900;8.208;2023-04-15T03:58:38;6.10;99.90
18456;DHT22;9357;49.900;8.208;2023-04-15T04:00:10;6.10;99.90
18456;DHT22;9357;49.900;8.208;2023-04-15T04:01:44;6.10;99.90
18456;DHT22;9357;49.900;8.208;2023-04-15T04:03:17;6.10;99.90
18456;DHT22;9357;49.900;8.208;2023-04-15T04:04:49;6.10;99.90
18456;DHT22;9357;49.900;8.208;2023-04-15T04:06:22;6.10;99.90
18456;DHT22;9357;49.900;8.208;2023-04-15T04:07:55;6.10;99.90
18456;DHT22;9357;49.900;8.208;2023-04-15T04:09:28;6.10;99.90
18456;DHT22;9357;49.900;8.208;2023-04-15T04:11:00;6.10;99.90
18456;DHT22;9357;49.900;8.208;2023-04-15T04:12:33;6.10;99.90
18456;DHT22;9357;49.900;8.208;2023-04-15T04:14:06;6.10;99.90
18456;DHT22;9357;49.900;8.208;2023-04-15T04:15:39;6.10;99.90
18456;DHT22;9357;49.900;8.208;2023-04-15T04:17:12;6.10;99.90
18456;DHT22;9357;49.900;8.208;2023-04-15T04:18:45;6.10;99.90
18456;DHT22;9357;49.900;8.208;2023-04-15T04:20:18;6.10;99.90
18456;DHT22;9357;49.900;8.208;2023-04-15T04:21:50;6.10;99.90
18456;DHT22;9357;49.900;8.208;2023-04-15T04:23:23;6.10;99.90
18456;DHT22;9357;49.900;8.208;2023-04-15T04:24:56;6.10;99.90
18456;DHT22;9357;49.900;8.208;2023-04-15T04:26:29;6.10;99.90
18456;DHT22;9357;49.900;8.208;2023-04-15T04:28:02;6.10;99.90
18456;DHT22;9357;49.900;8.208;2023-04-15T04:29:35;6.10;99.90
18456;DHT22;9357;49.900;8.208;2023-04-15T04:31:07;6.10;99.90
18456;DHT22;9357;49.900;8.208;2023-04-15T04:32:41;6.10;99.90
18456;DHT22;9357;49.900;8.208;2023-04-15T04:34:14;6.10;99.90
18456;DHT22;9357;49.900;8.208;2023-04-15T04:35:47;6.00;99.90
18456;DHT22;9357;49.900;8.208;2023-04-15T04:37:20;6.00;99.90
18456;DHT22;9357;49.900;8.208;2023-04-15T04:38:51;6.00;99.90
18456;DHT22;9357;49.900;8.208;2023-04-15T04:40:24;6.00;99.90
18456;DHT22;9357;49.900;8.208;2023-04-15T04:41:57;6.00;99.90
18456;DHT22;9357;49.900;8.208;2023-04-15T04:43:30;6.00;99.90
18456;DHT22;9357;49.900;8.208;2023-04-15T04:45:02;5.90;99.90
18456;DHT22;9357;49.900;8.208;2023-04-15T04:46:35;5.90;99.90
18456;DHT22;9357;49.900;8.208;2023-04-15T04:48:09;5.90;99.90
18456;DHT22;9357;49.900;8.208;2023-04-15T04:49:42;5.90;99.90
18456;DHT22;9357;49.900;8.208;2023-04-15T04:51:13;5.90;99.90
18456;DHT22;9357;49.900;8.208;2023-04-15T04:52:46;5.90;99.90
18456;DHT22;9357;49.900;8.208;2023-04-15T04:54:19;5.90;99.90
18456;DHT22;9357;49.900;8.208;2023-04-15T04:55:52;5.90;99.90
18456;DHT22;9357;49.900;8.208;2023-04-15T04:57:24;5.90;99.90
18456;DHT22;9357;49.900;8.208;2023-04-15T04:58:57;5.90;99.90
18456;DHT22;9357;49.900;8.208;2023-04-15T05:00:30;5.90;99.90
18456;DHT22;9357;49.900;8.208;2023-04-15T05:02:03;5.90;99.90
18456;DHT22;9357;49.900;8.208;2023-04-15T05:03:38;5.90;99.90
18456;DHT22;9357;49.900;8.208;2023-04-15T05:05:11;5.90;99.90
18456;DHT22;9357;49.900;8.208;2023-04-15T05:06:44;5.90;99.90
18456;DHT22;9357;49.900;8.208;2023-04-15T05:08:17;5.90;99.90
18456;DHT22;9357;49.900;8.208;2023-04-15T05:09:49;5.90;99.90
18456;DHT22;9357;49.900;8.208;2023-04-15T05:11:22;5.90;99.90
18456;DHT22;9357;49.900;8.208;2023-04-15T05:12:55;5.90;99.90
18456;DHT22;9357;49.900;8.208;2023-04-15T05:14:28;5.90;99.90
18456;DHT22;9357;49.900;8.208;2023-04-15T05:16:01;5.90;99.90
18456;DHT22;9357;49.900;8.208;2023-04-15T05:17:34;5.90;99.90
18456;DHT22;9357;49.900;8.208;2023-04-15T05:19:08;5.80;99.90
18456;DHT22;9357;49.900;8.208;2023-04-15T05:20:41;5.80;99.90
18456;DHT22;9357;49.900;8.208;2023-04-15T05:22:14;5.70;99.90
18456;DHT22;9357;49.900;8.208;2023-04-15T05:23:47;5.70;99.90
18456;DHT22;9357;49.900;8.208;2023-04-15T05:25:19;5.70;99.90
18456;DHT22;9357;49.900;8.208;2023-04-15T05:26:52;5.70;99.90
18456;DHT22;9357;49.900;8.208;2023-04-15T05:28:25;5.60;99.90
18456;DHT22;9357;49.900;8.208;2023-04-15T05:29:58;5.50;99.90
18456;DHT22;9357;49.900;8.208;2023-04-15T05:31:31;5.50;99.90
18456;DHT22;9357;49.900;8.208;2023-04-15T05:33:03;5.50;99.90
18456;DHT22;9357;49.900;8.208;2023-04-15T05:34:37;5.50;99.90
18456;DHT22;9357;49.900;8.208;2023-04-15T05:36:10;5.40;99.90
18456;DHT22;9357;49.900;8.208;2023-04-15T05:37:44;5.30;99.90
18456;DHT22;9357;49.900;8.208;2023-04-15T05:39:17;5.30;99.90
18456;DHT22;9357;49.900;8.208;2023-04-15T05:40:49;5.30;99.90
18456;DHT22;9357;49.900;8.208;2023-04-15T05:42:22;5.30;99.90
18456;DHT22;9357;49.900;8.208;2023-04-15T05:43:55;5.40;99.90
18456;DHT22;9357;49.900;8.208;2023-04-15T05:45:27;5.40;99.90
18456;DHT22;9357;49.900;8.208;2023-04-15T05:47:00;5.40;99.90
18456;DHT22;9357;49.900;8.208;2023-04-15T05:48:34;5.40;99.90
18456;DHT22;9357;49.900;8.208;2023-04-15T05:50:09;5.40;99.90
18456;DHT22;9357;49.900;8.208;2023-04-15T05:51:42;5.40;99.90
18456;DHT22;9357;49.900;8.208;2023-04-15T05:53:14;5.50;99.90
18456;DHT22;9357;49.900;8.208;2023-04-15T05:54:47;5.50;99.90
18456;DHT22;9357;49.900;8.208;2023-04-15T05:56:20;5.50;99.90
18456;DHT22;9357;49.900;8.208;2023-04-15T05:57:53;5.50;99.90
18456;DHT22;9357;49.900;8.208;2023-04-15T05:59:25;5.50;99.90
18456;DHT22;9357;49.900;8.208;2023-04-15T06:00:59;5.60;99.90
18456;DHT22;9357;49.900;8.208;2023-04-15T06:02:32;5.60;99.90
18456;DHT22;9357;49.900;8.208;2023-04-15T06:04:05;5.60;99.90
18456;DHT22;9357;49.900;8.208;2023-04-15T06:05:39;5.60;99.90
18456;DHT22;9357;49.900;8.208;2023-04-15T06:07:12;5.60;99.90
18456;DHT22;9357;49.900;8.208;2023-04-15T06:08:44;5.60;99.90
18456;DHT22;9357;49.900;8.208;2023-04-15T06:10:17;5.60;99.90
18456;DHT22;9357;49.900;8.208;2023-04-15T06:11:50;5.60;99.90
18456;DHT22;9357;49.900;8.208;2023-04-15T06:13:23;5.70;99.90
18456;DHT22;9357;49.900;8.208;2023-04-15T06:14:56;5.70;99.90
18456;DHT22;9357;49.900;8.208;2023-04-15T06:16:30;5.70;99.90
18456;DHT22;9357;49.900;8.208;2023-04-15T06:18:03;5.80;99.90
18456;DHT22;9357;49.900;8.208;2023-04-15T06:19:36;5.80;99.90
18456;DHT22;9357;49.900;8.208;2023-04-15T06:21:10;5.80;99.90
18456;DHT22;9357;49.900;8.208;2023-04-15T06:22:43;5.90;99.90
18456;DHT22;9357;49.900;8.208;2023-04-15T06:24:16;5.90;99.90
18456;DHT22;9357;49.900;8.208;2023-04-15T06:25:49;6.00;99.90
18456;DHT22;9357;49.900;8.208;2023-04-15T06:27:22;6.00;99.90
18456;DHT22;9357;49.900;8.208;2023-04-15T06:28:54;6.10;99.90
18456;DHT22;9357;49.900;8.208;2023-04-15T06:30:26;6.20;99.90
18456;DHT22;9357;49.900;8.208;2023-04-15T06:31:59;6.20;99.90
18456;DHT22;9357;49.900;8.208;2023-04-15T06:33:32;6.30;99.90
18456;DHT22;9357;49.900;8.208;2023-04-15T06:35:05;6.40;99.90
18456;DHT22;9357;49.900;8.208;2023-04-15T06:36:39;6.40;99.90
18456;DHT22;9357;49.900;8.208;2023-04-15T06:38:12;6.50;99.90
18456;DHT22;9357;49.900;8.208;2023-04-15T06:39:44;6.70;99.90
18456;DHT22;9357;49.900;8.208;2023-04-15T06:41:17;6.80;99.90
18456;DHT22;9357;49.900;8.208;2023-04-15T06:42:50;6.90;99.90
18456;DHT22;9357;49.900;8.208;2023-04-15T06:44:23;7.00;99.90
18456;DHT22;9357;49.900;8.208;2023-04-15T06:45:56;7.20;99.90
18456;DHT22;9357;49.900;8.208;2023-04-15T06:47:29;7.30;99.90
18456;DHT22;9357;49.900;8.208;2023-04-15T06:49:01;7.50;99.90
18456;DHT22;9357;49.900;8.208;2023-04-15T06:50:35;7.60;99.90
18456;DHT22;9357;49.900;8.208;2023-04-15T06:52:10;7.80;99.90
18456;DHT22;9357;49.900;8.208;2023-04-15T06:53:43;7.90;99.90
18456;DHT22;9357;49.900;8.208;2023-04-15T06:55:16;8.00;99.90
18456;DHT22;9357;49.900;8.208;2023-04-15T06:56:48;8.20;99.90
18456;DHT22;9357;49.900;8.208;2023-04-15T06:58:22;8.30;99.90
18456;DHT22;9357;49.900;8.208;2023-04-15T06:59:55;8.40;99.90
18456;DHT22;9357;49.900;8.208;2023-04-15T07:01:27;8.60;99.90
18456;DHT22;9357;49.900;8.208;2023-04-15T07:03:00;8.60;99.90
18456;DHT22;9357;49.900;8.208;2023-04-15T07:04:34;8.70;99.90
18456;DHT22;9357;49.900;8.208;2023-04-15T07:06:07;8.90;99.90
18456;DHT22;9357;49.900;8.208;2023-04-15T07:07:41;9.00;99.90
18456;DHT22;9357;49.900;8.208;2023-04-15T07:09:14;9.10;99.90
18456;DHT22;9357;49.900;8.208;2023-04-15T07:10:47;9.20;99.90
18456;DHT22;9357;49.900;8.208;2023-04-15T07:12:20;9.30;99.90
18456;DHT22;9357;49.900;8.208;2023-04-15T07:13:52;9.40;99.90
18456;DHT22;9357;49.900;8.208;2023-04-15T07:15:25;9.50;99.90
18456;DHT22;9357;49.900;8.208;2023-04-15T07:16:58;9.60;99.90
18456;DHT22;9357;49.900;8.208;2023-04-15T07:18:31;9.70;99.90
18456;DHT22;9357;49.900;8.208;2023-04-15T07:20:04;9.70;99.90
18456;DHT22;9357;49.900;8.208;2023-04-15T07:21:36;9.90;99.90
18456;DHT22;9357;49.900;8.208;2023-04-15T07:23:13;10.00;99.90
18456;DHT22;9357;49.900;8.208;2023-04-15T07:24:46;10.10;99.90
18456;DHT22;9357;49.900;8.208;2023-04-15T07:26:19;10.20;99.90
18456;DHT22;9357;49.900;8.208;2023-04-15T07:27:52;10.30;99.90
18456;DHT22;9357;49.900;8.208;2023-04-15T07:29:25;10.40;99.90
18456;DHT22;9357;49.900;8.208;2023-04-15T07:30:58;10.60;99.90
18456;DHT22;9357;49.900;8.208;2023-04-15T07:32:31;10.70;99.90
18456;DHT22;9357;49.900;8.208;2023-04-15T07:34:05;10.80;99.90
18456;DHT22;9357;49.900;8.208;2023-04-15T07:35:39;11.00;99.90
18456;DHT22;9357;49.900;8.208;2023-04-15T07:37:11;11.10;99.90
18456;DHT22;9357;49.900;8.208;2023-04-15T07:38:46;11.20;99.90
18456;DHT22;9357;49.900;8.208;2023-04-15T07:40:19;11.40;99.90
18456;DHT22;9357;49.900;8.208;2023-04-15T07:41:52;11.50;99.90
18456;DHT22;9357;49.900;8.208;2023-04-15T07:43:25;11.70;99.90
18456;DHT22;9357;49.900;8.208;2023-04-15T07:44:58;12.00;99.90
18456;DHT22;9357;49.900;8.208;2023-04-15T07:46:31;12.10;99.90
18456;DHT22;9357;49.900;8.208;2023-04-15T07:48:04;12.20;99.90
18456;DHT22;9357;49.900;8.208;2023-04-15T07:49:38;12.30;99.90
18456;DHT22;9357;49.900;8.208;2023-04-15T07:51:11;12.40;99.90
18456;DHT22;9357;49.900;8.208;2023-04-15T07:52:44;12.40;99.90
18456;DHT22;9357;49.900;8.208;2023-04-15T07:54:18;12.40;99.90
18456;DHT22;9357;49.900;8.208;2023-04-15T07:55:51;12.50;99.90
18456;DHT22;9357;49.900;8.208;2023-04-15T07:57:24;12.50;99.90
18456;DHT22;9357;49.900;8.208;2023-04-15T07:58:56;12.60;99.90
18456;DHT22;9357;49.900;8.208;2023-04-15T08:00:29;12.60;99.90
18456;DHT22;9357;49.900;8.208;2023-04-15T08:02:02;12.70;99.90
18456;DHT22;9357;49.900;8.208;2023-04-15T08:03:35;12.70;99.90
18456;DHT22;9357;49.900;8.208;2023-04-15T08:05:09;12.70;99.90
18456;DHT22;9357;49.900;8.208;2023-04-15T08:06:42;12.70;99.90
18456;DHT22;9357;49.900;8.208;2023-04-15T08:08:15;12.70;99.90
18456;DHT22;9357;49.900;8.208;2023-04-15T08:09:49;12.80;99.90
18456;DHT22;9357;49.900;8.208;2023-04-15T08:11:21;12.80;99.90
18456;DHT22;9357;49.900;8.208;2023-04-15T08:12:55;12.90;99.90
18456;DHT22;9357;49.900;8.208;2023-04-15T08:14:28;13.10;99.90
18456;DHT22;9357;49.900;8.208;2023-04-15T08:16:18;13.30;99.90
18456;DHT22;9357;49.900;8.208;2023-04-15T08:17:51;13.40;99.90
18456;DHT22;9357;49.900;8.208;2023-04-15T08:19:24;13.40;99.90
18456;DHT22;9357;49.900;8.208;2023-04-15T08:20:56;13.50;99.90
18456;DHT22;9357;49.900;8.208;2023-04-15T08:22:29;13.50;99.90
18456;DHT22;9357;49.900;8.208;2023-04-15T08:24:02;13.60;99.90
18456;DHT22;9357;49.900;8.208;2023-04-15T08:25:36;13.70;99.90
18456;DHT22;9357;49.900;8.208;2023-04-15T08:27:09;13.70;99.90
18456;DHT22;9357;49.900;8.208;2023-04-15T08:28:44;13.80;99.90
18456;DHT22;9357;49.900;8.208;2023-04-15T08:30:17;13.80;99.90
18456;DHT22;9357;49.900;8.208;2023-04-15T08:31:50;13.90;99.90
18456;DHT22;9357;49.900;8.208;2023-04-15T08:33:24;13.90;99.90
18456;DHT22;9357;49.900;8.208;2023-04-15T08:34:58;14.00;99.90
18456;DHT22;9357;49.900;8.208;2023-04-15T08:36:31;14.10;99.90
18456;DHT22;9357;49.900;8.208;2023-04-15T08:38:04;14.10;99.90
18456;DHT22;9357;49.900;8.208;2023-04-15T08:39:36;14.20;99.90
18456;DHT22;9357;49.900;8.208;2023-04-15T08:41:19;14.30;99.90
18456;DHT22;9357;49.900;8.208;2023-04-15T08:42:55;14.50;99.90
18456;DHT22;9357;49.900;8.208;2023-04-15T08:44:31;14.50;99.90
18456;DHT22;9357;49.900;8.208;2023-04-15T08:46:05;14.70;99.90
18456;DHT22;9357;49.900;8.208;2023-04-15T08:47:38;14.80;99.90
18456;DHT22;9357;49.900;8.208;2023-04-15T08:49:12;15.00;99.90
18456;DHT22;9357;49.900;8.208;2023-04-15T08:50:46;15.10;99.90
18456;DHT22;9357;49.900;8.208;2023-04-15T08:52:19;15.20;99.90
18456;DHT22;9357;49.900;8.208;2023-04-15T08:53:52;15.50;99.90
18456;DHT22;9357;49.900;8.208;2023-04-15T08:55:29;15.70;99.90
18456;DHT22;9357;49.900;8.208;2023-04-15T08:57:03;16.00;99.90
18456;DHT22;9357;49.900;8.208;2023-04-15T08:58:36;16.30;99.90
18456;DHT22;9357;49.900;8.208;2023-04-15T09:00:09;16.50;99.90
18456;DHT22;9357;49.900;8.208;2023-04-15T09:01:43;16.70;99.90
18456;DHT22;9357;49.900;8.208;2023-04-15T09:03:17;16.90;99.90
18456;DHT22;9357;49.900;8.208;2023-04-15T09:04:50;17.00;99.90
18456;DHT22;9357;49.900;8.208;2023-04-15T09:06:23;17.00;99.90
18456;DHT22;9357;49.900;8.208;2023-04-15T09:07:56;17.20;99.90
18456;DHT22;9357;49.900;8.208;2023-04-15T09:09:29;17.40;99.90
18456;DHT22;9357;49.900;8.208;2023-04-15T09:11:02;17.60;99.90
18456;DHT22;9357;49.900;8.208;2023-04-15T09:12:36;17.80;99.90
18456;DHT22;9357;49.900;8.208;2023-04-15T09:14:09;18.10;99.90
18456;DHT22;9357;49.900;8.208;2023-04-15T09:15:42;18.20;99.90
18456;DHT22;9357;49.900;8.208;2023-04-15T09:17:18;18.30;99.90
18456;DHT22;9357;49.900;8.208;2023-04-15T09:18:52;18.40;99.90
18456;DHT22;9357;49.900;8.208;2023-04-15T09:20:25;18.40;99.90
18456;DHT22;9357;49.900;8.208;2023-04-15T09:21:58;18.30;99.90
18456;DHT22;9357;49.900;8.208;2023-04-15T09:23:32;18.40;99.90
18456;DHT22;9357;49.900;8.208;2023-04-15T09:25:24;18.40;99.90
18456;DHT22;9357;49.900;8.208;2023-04-15T09:26:58;18.50;99.90
18456;DHT22;9357;49.900;8.208;2023-04-15T09:28:32;18.50;99.90
18456;DHT22;9357;49.900;8.208;2023-04-15T09:30:08;18.60;99.90
18456;DHT22;9357;49.900;8.208;2023-04-15T09:31:41;18.70;99.90
18456;DHT22;9357;49.900;8.208;2023-04-15T09:33:14;18.80;99.90
18456;DHT22;9357;49.900;8.208;2023-04-15T09:34:46;19.00;99.90
18456;DHT22;9357;49.900;8.208;2023-04-15T09:36:19;19.10;99.90
18456;DHT22;9357;49.900;8.208;2023-04-15T09:37:53;19.10;99.90
18456;DHT22;9357;49.900;8.208;2023-04-15T09:39:46;19.10;99.90
18456;DHT22;9357;49.900;8.208;2023-04-15T09:41:20;19.10;99.90
18456;DHT22;9357;49.900;8.208;2023-04-15T09:42:53;19.20;99.90
18456;DHT22;9357;49.900;8.208;2023-04-15T09:44:28;19.20;99.90
18456;DHT22;9357;49.900;8.208;2023-04-15T09:46:01;19.20;99.90
18456;DHT22;9357;49.900;8.208;2023-04-15T09:47:33;19.20;99.90
18456;DHT22;9357;49.900;8.208;2023-04-15T09:49:07;19.20;99.90
18456;DHT22;9357;49.900;8.208;2023-04-15T09:50:40;19.10;99.90
18456;DHT22;9357;49.900;8.208;2023-04-15T09:52:13;19.10;99.90
18456;DHT22;9357;49.900;8.208;2023-04-15T09:53:53;18.90;99.90
18456;DHT22;9357;49.900;8.208;2023-04-15T09:55:26;18.90;99.90
18456;DHT22;9357;49.900;8.208;2023-04-15T09:57:05;18.80;99.90
18456;DHT22;9357;49.900;8.208;2023-04-15T09:58:37;18.70;99.90
18456;DHT22;9357;49.900;8.208;2023-04-15T10:00:14;18.50;99.90
18456;DHT22;9357;49.900;8.208;2023-04-15T10:01:46;18.20;99.90
18456;DHT22;9357;49.900;8.208;2023-04-15T10:03:22;18.10;99.90
18456;DHT22;9357;49.900;8.208;2023-04-15T10:04:56;17.90;99.90
18456;DHT22;9357;49.900;8.208;2023-04-15T10:06:29;17.60;99.90